createdAt,value
2023-04-16T00:01:27.391Z,7.07
2023-04-16T00:03:55.334Z,7.10
2023-04-16T00:06:23.265Z,6.97
2023-04-16T00:08:55.679Z,7.55
2023-04-16T00:11:37.092Z,7.88
2023-04-16T00:14:05.852Z,7.50
2023-04-16T00:16:32.738Z,7.78
2023-04-16T00:18:59.483Z,7.95
2023-04-16T00:21:26.755Z,7.78
2023-04-16T00:24:08.446Z,7.28
2023-04-16T00:26:35.525Z,7.25
2023-04-16T00:29:02.529Z,8.02
2023-04-16T00:31:30.993Z,7.38
2023-04-16T00:33:58.832Z,7.80
2023-04-16T00:36:29.942Z,7.20
2023-04-16T00:38:57.256Z,7.65
2023-04-16T00:41:24.235Z,7.70
2023-04-16T00:43:56.130Z,6.82
2023-04-16T00:48:58.479Z,6.80
2023-04-16T00:51:39.450Z,6.57
2023-04-16T00:54:06.814Z,7.22
2023-04-16T00:56:43.731Z,6.93
2023-04-16T00:59:13.081Z,6.63
2023-04-16T01:01:42.942Z,7.38
2023-04-16T01:04:54.727Z,7.85
2023-04-16T01:07:21.588Z,7.65
2023-04-16T01:09:51.352Z,6.53
2023-04-16T01:12:18.079Z,7.35
2023-04-16T01:14:44.939Z,7.50
2023-04-16T01:17:12.244Z,8.18
2023-04-16T01:19:42.707Z,7.43
2023-04-16T01:24:51.062Z,8.05
2023-04-16T01:27:20.789Z,7.75
2023-04-16T01:29:47.532Z,8.02
2023-04-16T01:32:20.790Z,7.72
2023-04-16T01:34:47.732Z,8.02
2023-04-16T01:37:17.221Z,8.25
2023-04-16T01:39:53.037Z,7.65
2023-04-16T01:42:22.716Z,8.00
2023-04-16T01:44:49.478Z,7.80
2023-04-16T01:47:19.812Z,8.55
2023-04-16T01:49:51.065Z,7.53
2023-04-16T01:52:31.846Z,7.75
2023-04-16T01:55:00.536Z,7.85
2023-04-16T01:57:34.000Z,8.63
2023-04-16T02:00:00.775Z,7.68
2023-04-16T02:02:36.902Z,8.02
2023-04-16T02:05:09.772Z,8.40
2023-04-16T02:07:41.770Z,8.35
2023-04-16T02:12:37.146Z,7.07
2023-04-16T02:15:07.707Z,7.82
2023-04-16T02:17:34.480Z,8.02
2023-04-16T02:20:08.680Z,7.60
2023-04-16T02:22:35.532Z,7.65
2023-04-16T02:25:02.345Z,8.20
2023-04-16T02:27:29.136Z,7.88
2023-04-16T02:29:55.917Z,7.82
2023-04-16T02:32:25.872Z,8.30
2023-04-16T02:34:52.626Z,8.57
2023-04-16T02:37:30.799Z,8.35
2023-04-16T02:39:57.974Z,8.07
2023-04-16T02:42:24.754Z,8.77
2023-04-16T02:44:58.140Z,8.50
2023-04-16T02:47:26.085Z,8.68
2023-04-16T02:50:01.752Z,8.93
2023-04-16T02:52:28.669Z,8.75
2023-04-16T02:54:57.280Z,8.95
2023-04-16T02:57:24.011Z,8.10
2023-04-16T02:59:50.729Z,9.55
2023-04-16T03:02:19.361Z,8.10
2023-04-16T03:04:55.774Z,7.93
2023-04-16T03:07:22.520Z,8.60
2023-04-16T03:09:49.443Z,8.45
2023-04-16T03:12:23.464Z,7.80
2023-04-16T03:14:53.166Z,8.65
2023-04-16T03:17:21.255Z,8.90
2023-04-16T03:19:48.192Z,8.55
2023-04-16T03:22:14.973Z,8.85
2023-04-16T03:24:46.189Z,8.98
2023-04-16T03:27:13.497Z,9.90
2023-04-16T03:29:40.286Z,7.82
2023-04-16T03:32:12.579Z,8.73
2023-04-16T03:34:42.896Z,8.15
2023-04-16T03:37:12.171Z,8.55
2023-04-16T03:39:41.809Z,9.18
2023-04-16T03:42:16.193Z,8.60
2023-04-16T03:44:43.170Z,8.73
2023-04-16T03:47:09.922Z,8.80
2023-04-16T03:49:36.616Z,8.10
2023-04-16T03:52:03.359Z,9.27
2023-04-16T03:54:30.068Z,8.43
2023-04-16T03:56:57.233Z,8.30
2023-04-16T03:59:23.993Z,8.90
2023-04-16T04:01:54.032Z,9.18
2023-04-16T04:04:24.190Z,9.10
2023-04-16T04:06:50.987Z,9.50
2023-04-16T04:09:17.703Z,8.82
2023-04-16T04:11:44.477Z,9.50
2023-04-16T04:14:15.220Z,9.10
2023-04-16T04:16:44.018Z,9.65
2023-04-16T04:19:11.030Z,9.85
2023-04-16T04:21:41.863Z,10.60
2023-04-16T04:24:08.648Z,8.85
2023-04-16T04:26:35.409Z,10.48
2023-04-16T04:29:02.204Z,10.00
2023-04-16T04:31:44.942Z,10.27
2023-04-16T04:34:11.846Z,10.15
2023-04-16T04:36:38.627Z,10.75
2023-04-16T04:39:06.256Z,10.38
2023-04-16T04:41:38.852Z,10.02
2023-04-16T04:44:05.743Z,10.38
2023-04-16T04:46:32.618Z,10.57
2023-04-16T04:48:59.413Z,10.27
2023-04-16T04:51:27.224Z,10.18
2023-04-16T04:53:53.939Z,10.15
2023-04-16T04:56:21.028Z,10.85
2023-04-16T04:58:47.792Z,9.95
2023-04-16T05:01:19.756Z,10.32
2023-04-16T05:06:14.096Z,10.63
2023-04-16T05:08:40.866Z,10.07
2023-04-16T05:11:07.630Z,9.32
2023-04-16T05:13:47.131Z,9.73
2023-04-16T05:16:14.368Z,10.32
2023-04-16T05:18:41.618Z,9.55
2023-04-16T05:21:08.412Z,10.32
2023-04-16T05:23:35.169Z,9.27
2023-04-16T05:26:01.951Z,9.52
2023-04-16T05:28:35.768Z,9.43
2023-04-16T05:31:10.323Z,8.50
2023-04-16T05:33:52.570Z,9.85
2023-04-16T05:39:11.530Z,9.07
2023-04-16T05:41:38.745Z,8.95
2023-04-16T05:44:08.113Z,9.30
2023-04-16T05:46:43.283Z,9.70
2023-04-16T05:49:19.189Z,8.48
2023-04-16T05:51:50.880Z,7.97
2023-04-16T05:54:17.849Z,7.65
2023-04-16T05:56:46.028Z,7.93
2023-04-16T05:59:16.242Z,7.85
2023-04-16T06:01:43.383Z,7.97
2023-04-16T06:04:11.589Z,8.02
2023-04-16T06:06:41.873Z,6.18
2023-04-16T06:09:09.711Z,6.97
2023-04-16T06:11:43.379Z,7.22
2023-04-16T06:14:11.661Z,7.40
2023-04-16T06:16:48.574Z,6.20
2023-04-16T06:19:18.123Z,6.20
2023-04-16T06:21:47.636Z,6.95
2023-04-16T06:24:15.151Z,6.78
2023-04-16T06:26:44.715Z,6.60
2023-04-16T06:29:12.040Z,5.82
2023-04-16T06:31:39.347Z,6.18
2023-04-16T06:34:06.203Z,5.57
2023-04-16T06:36:44.772Z,4.97
2023-04-16T06:39:13.757Z,5.20
2023-04-16T06:41:40.546Z,5.82
2023-04-16T06:44:08.109Z,5.70
2023-04-16T06:46:34.851Z,5.45
2023-04-16T06:49:01.867Z,5.32
2023-04-16T06:51:44.827Z,4.15
2023-04-16T06:54:14.814Z,5.05
2023-04-16T06:56:51.704Z,4.70
2023-04-16T06:59:18.607Z,4.22
2023-04-16T07:01:59.022Z,4.72
2023-04-16T07:04:28.814Z,4.95
2023-04-16T07:07:05.404Z,4.28
2023-04-16T07:09:32.408Z,4.35
2023-04-16T07:11:59.194Z,4.30
2023-04-16T07:14:44.930Z,3.97
2023-04-16T07:17:14.696Z,4.57
2023-04-16T07:19:44.831Z,4.30
2023-04-16T07:22:18.677Z,3.58
2023-04-16T07:24:48.118Z,4.15
2023-04-16T07:27:19.414Z,4.63
2023-04-16T07:29:46.273Z,4.03
2023-04-16T07:32:16.138Z,3.67
2023-04-16T07:34:46.246Z,3.13
2023-04-16T07:37:16.586Z,3.90
2023-04-16T07:39:46.082Z,3.53
2023-04-16T07:42:16.007Z,3.70
2023-04-16T07:44:43.116Z,3.17
2023-04-16T07:47:10.160Z,3.70
2023-04-16T07:49:36.892Z,3.47
2023-04-16T07:52:03.571Z,2.63
2023-04-16T07:54:30.782Z,2.30
2023-04-16T07:57:07.201Z,3.45
2023-04-16T07:59:39.414Z,2.97
2023-04-16T08:02:14.539Z,3.40
2023-04-16T08:05:07.021Z,2.92
2023-04-16T08:07:37.945Z,3.13
2023-04-16T08:10:05.884Z,3.50
2023-04-16T08:12:32.913Z,3.53
2023-04-16T08:15:03.165Z,3.28
2023-04-16T08:17:35.608Z,3.80
2023-04-16T08:20:08.796Z,4.22
2023-04-16T08:22:35.836Z,4.25
2023-04-16T08:25:12.300Z,3.90
2023-04-16T08:27:41.595Z,3.58
2023-04-16T08:30:22.779Z,3.97
2023-04-16T08:32:53.094Z,3.70
2023-04-16T08:35:19.936Z,3.42
2023-04-16T08:37:56.104Z,3.67
2023-04-16T08:40:24.870Z,3.67
2023-04-16T08:43:04.930Z,3.28
2023-04-16T08:45:35.020Z,3.88
2023-04-16T08:48:06.590Z,3.50
2023-04-16T08:50:35.805Z,3.63
2023-04-16T08:53:21.859Z,3.63
2023-04-16T08:55:50.657Z,3.63
2023-04-16T08:58:22.921Z,3.42
2023-04-16T09:00:50.030Z,3.40
2023-04-16T09:03:17.057Z,3.50
2023-04-16T09:05:49.854Z,3.38
2023-04-16T09:08:25.083Z,3.80
2023-04-16T09:10:56.153Z,3.67
2023-04-16T09:13:26.054Z,3.75
2023-04-16T09:16:01.863Z,3.90
2023-04-16T09:18:38.884Z,3.30
2023-04-16T09:21:06.053Z,2.50
2023-04-16T09:23:38.743Z,3.67
2023-04-16T09:26:12.140Z,3.80
2023-04-16T09:28:46.997Z,2.90
2023-04-16T09:31:18.494Z,4.43
2023-04-16T09:34:09.228Z,3.15
2023-04-16T09:36:39.317Z,3.85
2023-04-16T09:39:20.158Z,3.40
2023-04-16T09:41:55.514Z,3.30
2023-04-16T09:44:37.657Z,3.65
2023-04-16T09:47:12.013Z,3.40
2023-04-16T09:49:50.983Z,2.70
2023-04-16T09:52:27.112Z,2.47
2023-04-16T09:55:00.166Z,2.55
2023-04-16T09:57:27.330Z,1.90
2023-04-16T09:59:59.539Z,2.08
2023-04-16T10:02:30.232Z,1.98
2023-04-16T10:05:00.593Z,2.07
2023-04-16T10:07:35.027Z,2.00
2023-04-16T10:10:08.484Z,2.20
2023-04-16T10:12:37.535Z,1.73
2023-04-16T10:15:05.180Z,1.80
2023-04-16T10:17:32.349Z,2.15
2023-04-16T10:20:06.509Z,2.22
2023-04-16T10:22:39.921Z,2.22
2023-04-16T10:25:17.064Z,2.33
2023-04-16T10:27:52.224Z,2.17
2023-04-16T10:30:22.498Z,1.90
2023-04-16T10:32:51.126Z,2.30
2023-04-16T10:35:28.582Z,2.03
2023-04-16T10:38:44.074Z,2.58
2023-04-16T10:41:06.021Z,2.55
2023-04-16T10:43:44.326Z,2.97
2023-04-16T10:46:23.201Z,2.40
2023-04-16T10:48:53.633Z,2.28
2023-04-16T10:51:38.949Z,1.77
2023-04-16T10:54:08.738Z,2.08
2023-04-16T10:56:38.504Z,1.75
2023-04-16T10:59:11.220Z,1.00
2023-04-16T11:01:43.951Z,0.90
2023-04-16T11:04:20.237Z,1.05
2023-04-16T11:07:15.585Z,1.52
2023-04-16T11:10:09.266Z,1.58
2023-04-16T11:12:54.238Z,1.25
2023-04-16T11:15:37.997Z,1.30
2023-04-16T11:18:17.386Z,1.77
2023-04-16T11:20:44.530Z,1.48
2023-04-16T11:23:13.520Z,0.95
2023-04-16T11:25:40.338Z,1.10
2023-04-16T11:28:37.335Z,0.85
2023-04-16T11:31:13.899Z,0.85
2023-04-16T11:33:41.665Z,1.60
2023-04-16T11:36:08.533Z,1.70
2023-04-16T11:38:41.180Z,1.23
2023-04-16T11:41:08.737Z,1.00
2023-04-16T11:43:42.949Z,2.15
2023-04-16T11:46:26.405Z,1.00
2023-04-16T11:49:04.352Z,1.17
2023-04-16T11:51:40.272Z,1.67
2023-04-16T11:54:10.349Z,1.50
2023-04-16T11:56:48.030Z,1.20
2023-04-16T11:59:24.900Z,0.98
2023-04-16T12:01:56.089Z,1.27
2023-04-16T12:04:36.319Z,1.15
2023-04-16T12:07:14.141Z,1.25
2023-04-16T12:09:42.970Z,1.10
2023-04-16T12:12:27.548Z,1.08
2023-04-16T12:14:57.064Z,1.20
2023-04-16T12:17:24.502Z,1.10
2023-04-16T12:20:02.481Z,0.75
2023-04-16T12:22:37.192Z,0.90
2023-04-16T12:25:12.813Z,0.90
2023-04-16T12:28:03.484Z,1.00
2023-04-16T12:30:33.504Z,1.48
2023-04-16T12:36:47.615Z,1.25
2023-04-16T12:39:20.469Z,0.80
2023-04-16T12:42:08.123Z,1.33
2023-04-16T12:44:43.772Z,1.10
2023-04-16T12:47:32.369Z,1.10
2023-04-16T12:50:14.097Z,1.00
2023-04-16T12:55:16.706Z,0.90
2023-04-16T12:57:43.552Z,1.02
2023-04-16T13:00:17.656Z,1.23
2023-04-16T13:02:44.525Z,1.20
2023-04-16T13:05:19.473Z,0.95
2023-04-16T13:07:52.097Z,0.60
2023-04-16T13:10:21.368Z,0.73
2023-04-16T13:12:52.661Z,1.15
2023-04-16T13:15:19.498Z,1.00
2023-04-16T13:17:51.969Z,1.13
2023-04-16T13:20:30.073Z,1.70
2023-04-16T13:22:57.137Z,1.55
2023-04-16T13:25:23.947Z,1.13
2023-04-16T13:28:00.814Z,1.20
2023-04-16T13:30:30.665Z,1.50
2023-04-16T13:33:00.731Z,1.10
2023-04-16T13:35:31.345Z,1.20
2023-04-16T13:37:58.096Z,1.13
2023-04-16T13:40:37.047Z,0.70
2023-04-16T13:43:07.808Z,1.10
2023-04-16T13:45:37.688Z,1.33
2023-04-16T13:48:07.980Z,1.33
2023-04-16T13:50:37.882Z,1.00
2023-04-16T13:53:07.617Z,1.13
2023-04-16T13:55:45.148Z,1.38
2023-04-16T13:58:20.502Z,1.00
2023-04-16T14:00:53.068Z,1.52
2023-04-16T14:06:11.052Z,1.00
2023-04-16T14:08:44.479Z,0.90
2023-04-16T14:11:12.846Z,1.13
2023-04-16T14:13:54.897Z,1.10
2023-04-16T14:16:21.699Z,0.98
2023-04-16T14:18:48.539Z,1.40
2023-04-16T14:21:20.296Z,1.45
2023-04-16T14:23:50.075Z,1.40
2023-04-16T14:26:17.062Z,2.00
2023-04-16T14:28:45.614Z,1.20
2023-04-16T14:31:14.991Z,4.55
2023-04-16T14:33:42.059Z,14.23
2023-04-16T14:36:09.057Z,1.13
2023-04-16T14:38:49.778Z,1.42
2023-04-16T14:41:18.944Z,1.10
2023-04-16T14:43:49.593Z,0.77
2023-04-16T14:46:22.913Z,1.10
2023-04-16T14:48:50.023Z,1.30
2023-04-16T14:51:16.796Z,1.40
2023-04-16T14:53:44.127Z,1.67
2023-04-16T14:56:20.006Z,1.08
2023-04-16T14:58:55.986Z,1.30
2023-04-16T15:01:26.215Z,1.20
2023-04-16T15:03:59.179Z,1.05
2023-04-16T15:06:28.062Z,1.52
2023-04-16T15:08:55.056Z,1.27
2023-04-16T15:11:23.108Z,1.55
2023-04-16T15:13:59.667Z,1.00
2023-04-16T15:16:26.633Z,1.10
2023-04-16T15:18:55.972Z,0.90
2023-04-16T15:21:23.009Z,1.02
2023-04-16T15:23:55.919Z,1.08
2023-04-16T15:26:26.755Z,3.33
2023-04-16T15:28:53.600Z,11.70
2023-04-16T15:31:26.754Z,1.70
2023-04-16T15:33:54.674Z,1.40
2023-04-16T15:36:40.030Z,1.10
2023-04-16T15:39:53.287Z,1.50
2023-04-16T15:42:46.395Z,4.85
2023-04-16T15:45:21.348Z,1.55
2023-04-16T15:47:58.048Z,3.35
2023-04-16T15:50:25.900Z,4.30
2023-04-16T15:52:53.267Z,2.45
2023-04-16T15:55:32.628Z,4.80
2023-04-16T15:58:01.959Z,2.05
2023-04-16T16:00:41.295Z,1.55
2023-04-16T16:03:10.891Z,1.30
2023-04-16T16:06:03.725Z,1.48
2023-04-16T16:08:31.014Z,1.27
2023-04-16T16:11:00.881Z,1.85
2023-04-16T16:13:31.158Z,1.30
2023-04-16T16:16:07.166Z,1.55
2023-04-16T16:18:34.079Z,3.85
2023-04-16T16:21:05.792Z,1.23
2023-04-16T16:26:24.177Z,1.60
2023-04-16T16:31:44.574Z,1.40
2023-04-16T16:34:21.452Z,2.05
2023-04-16T16:36:52.404Z,1.83
2023-04-16T16:39:25.072Z,1.27
2023-04-16T16:41:56.839Z,1.23
2023-04-16T16:47:21.984Z,6.70
2023-04-16T16:49:50.129Z,22.27
2023-04-16T16:52:28.032Z,1.60
2023-04-16T16:55:02.114Z,1.90
2023-04-16T16:57:43.076Z,1.98
2023-04-16T17:03:09.501Z,5.05
2023-04-16T17:08:31.599Z,1.35
2023-04-16T17:11:03.174Z,2.05
2023-04-16T17:13:38.337Z,2.55
2023-04-16T17:19:06.472Z,10.88
2023-04-16T17:21:42.543Z,6.45
2023-04-16T17:24:10.921Z,4.25
2023-04-16T17:26:48.391Z,5.93
2023-04-16T17:29:17.981Z,2.80
2023-04-16T17:31:46.151Z,2.45
2023-04-16T17:37:03.164Z,2.10
2023-04-16T17:39:30.255Z,1.95
2023-04-16T17:42:01.636Z,2.05
2023-04-16T17:44:38.079Z,2.17
2023-04-16T17:47:07.332Z,2.30
2023-04-16T17:49:37.671Z,2.20
2023-04-16T17:52:10.163Z,3.03
2023-04-16T17:54:42.898Z,3.30
2023-04-16T17:57:12.822Z,2.78
2023-04-16T17:59:52.256Z,5.03
2023-04-16T18:02:30.176Z,2.63
2023-04-16T18:05:02.233Z,3.28
2023-04-16T18:07:36.792Z,2.60
2023-04-16T18:10:18.934Z,3.70
2023-04-16T18:12:47.789Z,2.90
2023-04-16T18:15:14.569Z,3.00
2023-04-16T18:17:41.950Z,4.25
2023-04-16T18:20:13.869Z,2.55
2023-04-16T18:22:43.642Z,4.50
2023-04-16T18:25:16.133Z,39.97
2023-04-16T18:27:44.836Z,12.45
2023-04-16T18:33:03.684Z,3.40
2023-04-16T18:35:30.975Z,2.20
2023-04-16T18:38:00.598Z,3.00
2023-04-16T18:40:29.375Z,3.55
2023-04-16T18:43:00.783Z,6.43
2023-04-16T18:45:40.061Z,36.42
2023-04-16T18:48:06.786Z,11.88
2023-04-16T18:50:40.998Z,21.20
2023-04-16T18:53:11.030Z,3.97
2023-04-16T18:55:40.507Z,3.35
2023-04-16T18:58:30.390Z,3.08
2023-04-16T19:01:01.397Z,2.92
2023-04-16T19:03:36.547Z,2.53
2023-04-16T19:06:08.183Z,2.30
2023-04-16T19:08:35.157Z,2.97
2023-04-16T19:11:04.556Z,7.03
2023-04-16T19:13:35.312Z,3.28
2023-04-16T19:16:11.733Z,4.00
2023-04-16T19:18:40.285Z,2.63
2023-04-16T19:21:11.055Z,2.80
2023-04-16T19:23:38.207Z,2.40
2023-04-16T19:26:14.131Z,2.70
2023-04-16T19:28:43.756Z,3.05
2023-04-16T19:31:10.590Z,2.80
2023-04-16T19:33:40.299Z,2.67
2023-04-16T19:36:19.566Z,2.65
2023-04-16T19:38:50.470Z,2.83
2023-04-16T19:41:23.593Z,2.92
2023-04-16T19:43:54.808Z,2.65
2023-04-16T19:46:21.597Z,2.85
2023-04-16T19:51:38.901Z,3.37
2023-04-16T19:54:07.184Z,3.30
2023-04-16T19:56:38.604Z,3.05
2023-04-16T19:59:06.741Z,2.92
2023-04-16T20:01:38.206Z,2.95
2023-04-16T20:04:07.138Z,3.20
2023-04-16T20:06:34.492Z,2.88
2023-04-16T20:09:12.858Z,3.17
2023-04-16T20:11:51.253Z,2.75
2023-04-16T20:17:02.352Z,3.00
2023-04-16T20:19:48.841Z,3.30
2023-04-16T20:22:18.910Z,3.10
2023-04-16T20:24:50.618Z,3.75
2023-04-16T20:27:26.854Z,3.28
2023-04-16T20:29:53.684Z,3.42
2023-04-16T20:32:35.021Z,4.13
2023-04-16T20:35:07.496Z,4.18
2023-04-16T20:37:38.101Z,4.20
2023-04-16T20:40:09.746Z,4.53
2023-04-16T20:42:41.032Z,3.90
2023-04-16T20:45:12.124Z,5.25
2023-04-16T20:47:39.010Z,4.95
2023-04-16T20:50:07.618Z,5.63
2023-04-16T20:52:51.416Z,3.78
2023-04-16T20:55:26.606Z,4.60
2023-04-16T20:57:54.423Z,4.20
2023-04-16T21:00:24.605Z,4.78
2023-04-16T21:02:51.804Z,4.25
2023-04-16T21:05:24.471Z,4.72
2023-04-16T21:08:01.541Z,4.43
2023-04-16T21:10:31.865Z,5.10
2023-04-16T21:12:59.326Z,6.88
2023-04-16T21:15:26.374Z,6.25
2023-04-16T21:17:54.626Z,6.78
2023-04-16T21:20:33.924Z,4.85
2023-04-16T21:23:03.062Z,4.07
2023-04-16T21:25:36.013Z,4.30
2023-04-16T21:28:06.438Z,4.28
2023-04-16T21:30:33.345Z,4.72
2023-04-16T21:33:00.201Z,4.53
2023-04-16T21:35:26.998Z,5.25
2023-04-16T21:37:53.744Z,4.32
2023-04-16T21:40:23.541Z,4.70
2023-04-16T21:42:52.405Z,5.05
2023-04-16T21:45:24.731Z,4.65
2023-04-16T21:47:55.893Z,4.28
2023-04-16T21:50:26.208Z,4.43
2023-04-16T21:52:55.356Z,4.05
2023-04-16T21:55:22.360Z,3.97
2023-04-16T21:57:52.302Z,4.32
2023-04-16T22:00:21.930Z,4.60
2023-04-16T22:02:53.560Z,4.57
2023-04-16T22:05:24.326Z,4.07
2023-04-16T22:07:53.490Z,3.88
2023-04-16T22:10:22.203Z,3.63
2023-04-16T22:12:56.777Z,3.75
2023-04-16T22:15:32.128Z,3.70
2023-04-16T22:18:01.339Z,4.28
2023-04-16T22:20:39.106Z,4.07
2023-04-16T22:23:06.927Z,4.30
2023-04-16T22:25:34.784Z,3.97
2023-04-16T22:28:03.565Z,3.67
2023-04-16T22:30:30.571Z,3.55
2023-04-16T22:32:59.896Z,3.90
2023-04-16T22:35:30.004Z,3.85
2023-04-16T22:38:01.437Z,4.60
2023-04-16T22:40:31.998Z,3.60
2023-04-16T22:43:01.774Z,4.10
2023-04-16T22:45:28.813Z,3.63
2023-04-16T22:47:57.651Z,3.70
2023-04-16T22:50:24.857Z,3.25
2023-04-16T22:53:00.617Z,3.70
2023-04-16T22:55:33.459Z,3.60
2023-04-16T22:58:00.569Z,3.60
2023-04-16T23:00:30.562Z,3.80
2023-04-16T23:02:59.900Z,4.20
2023-04-16T23:05:26.790Z,4.03
2023-04-16T23:08:09.186Z,3.92
2023-04-16T23:10:40.026Z,3.83
2023-04-16T23:13:08.440Z,4.07
2023-04-16T23:15:42.074Z,4.13
2023-04-16T23:18:20.850Z,4.10
2023-04-16T23:20:53.655Z,3.75
2023-04-16T23:23:23.381Z,3.80
2023-04-16T23:25:55.274Z,4.07
2023-04-16T23:28:22.514Z,4.47
2023-04-16T23:30:53.250Z,3.83
2023-04-16T23:33:24.661Z,4.43
2023-04-16T23:35:54.467Z,3.33
2023-04-16T23:38:28.585Z,3.85
2023-04-16T23:40:58.351Z,4.18
2023-04-16T23:43:45.961Z,4.00
2023-04-16T23:46:14.185Z,3.90
2023-04-16T23:48:45.142Z,3.88
2023-04-16T23:51:20.498Z,3.93
2023-04-16T23:53:53.306Z,3.90
2023-04-16T23:56:20.198Z,3.97
2023-04-16T23:58:51.322Z,4.13
